createdAt,value
2019-05-17T00:01:28.169Z,11.80
2019-05-17T00:07:32.387Z,11.60
2019-05-17T00:13:38.695Z,11.50
2019-05-17T00:19:42.653Z,11.40
2019-05-17T00:25:47.137Z,11.30
2019-05-17T00:31:51.423Z,11.20
2019-05-17T00:37:57.076Z,11.10
2019-05-17T00:44:01.510Z,11.00
2019-05-17T00:50:07.458Z,11.00
2019-05-17T00:56:11.878Z,10.90
2019-05-17T01:02:16.402Z,11.00
2019-05-17T01:08:20.684Z,10.90
2019-05-17T01:14:26.583Z,10.90
2019-05-17T01:20:30.892Z,10.90
2019-05-17T01:26:37.213Z,11.00
2019-05-17T01:32:41.156Z,11.10
2019-05-17T01:38:46.891Z,11.20
2019-05-17T01:44:51.280Z,11.20
2019-05-17T01:50:56.839Z,11.30
2019-05-17T01:57:01.368Z,11.30
2019-05-17T02:03:07.004Z,11.40
2019-05-17T02:09:11.648Z,11.40
2019-05-17T02:15:16.448Z,11.50
2019-05-17T02:21:20.905Z,11.50
2019-05-17T02:27:31.586Z,11.50
2019-05-17T02:33:34.930Z,11.50
2019-05-17T02:39:56.566Z,11.50
2019-05-17T02:45:45.145Z,11.50
2019-05-17T02:51:52.551Z,11.50
2019-05-17T02:57:55.264Z,11.50
2019-05-17T03:03:59.628Z,11.50
2019-05-17T03:10:21.636Z,11.50
2019-05-17T03:16:10.179Z,11.50
2019-05-17T03:22:15.445Z,11.50
2019-05-17T03:28:23.236Z,11.50
2019-05-17T03:34:26.918Z,11.50
2019-05-17T03:41:01.325Z,11.50
2019-05-17T03:46:37.556Z,11.50
2019-05-17T03:52:44.688Z,11.50
2019-05-17T03:58:47.769Z,11.50
2019-05-17T04:04:52.941Z,11.50
2019-05-17T04:10:57.592Z,11.40
2019-05-17T04:17:03.025Z,11.40
2019-05-17T04:23:07.641Z,11.40
2019-05-17T04:29:13.598Z,11.40
2019-05-17T04:35:18.127Z,11.40
2019-05-17T04:41:39.553Z,11.40
2019-05-17T04:47:28.487Z,11.40
2019-05-17T04:53:33.277Z,11.40
2019-05-17T04:59:37.542Z,11.40
2019-05-17T05:05:42.841Z,11.30
2019-05-17T05:11:57.115Z,11.30
2019-05-17T05:17:53.470Z,11.20
2019-05-17T05:23:57.680Z,11.20
2019-05-17T05:30:03.032Z,11.10
2019-05-17T05:36:07.603Z,11.20
2019-05-17T05:42:13.957Z,11.10
2019-05-17T05:48:18.167Z,11.10
2019-05-17T05:54:22.622Z,11.20
2019-05-17T06:00:27.016Z,11.20
2019-05-17T06:06:32.214Z,11.30
2019-05-17T06:12:36.587Z,11.40
2019-05-17T06:18:42.507Z,11.50
2019-05-17T06:24:46.883Z,11.50
2019-05-17T06:30:52.178Z,11.50
2019-05-17T06:36:56.566Z,11.50
2019-05-17T06:43:04.245Z,11.60
2019-05-17T06:49:06.763Z,11.60
2019-05-17T06:55:12.841Z,11.80
2019-05-17T07:01:20.031Z,11.90
2019-05-17T07:07:30.154Z,11.90
2019-05-17T07:13:33.452Z,12.10
2019-05-17T07:19:39.881Z,12.30
2019-05-17T07:25:43.615Z,12.20
2019-05-17T07:31:49.794Z,12.20
2019-05-17T07:37:53.879Z,12.20
2019-05-17T07:44:00.275Z,12.30
2019-05-17T07:50:04.868Z,12.30
2019-05-17T07:56:10.271Z,12.30
2019-05-17T08:02:14.685Z,12.20
2019-05-17T08:08:20.754Z,12.40
2019-05-17T08:14:29.996Z,12.30
2019-05-17T08:20:30.940Z,12.40
2019-05-17T08:26:35.216Z,12.40
2019-05-17T08:32:40.258Z,12.60
2019-05-17T08:38:44.822Z,12.70
2019-05-17T08:44:49.846Z,12.80
2019-05-17T08:50:54.220Z,12.70
2019-05-17T08:57:00.503Z,12.80
2019-05-17T09:03:04.372Z,12.80
2019-05-17T09:09:10.040Z,12.80
2019-05-17T09:15:14.688Z,12.80
2019-05-17T09:21:21.683Z,12.70
2019-05-17T09:27:24.546Z,12.80
2019-05-17T09:33:29.987Z,13.00
2019-05-17T09:39:34.701Z,13.00
2019-05-17T09:45:40.305Z,13.00
2019-05-17T09:51:44.960Z,13.10
2019-05-17T09:57:49.708Z,13.10
2019-05-17T10:03:54.092Z,13.20
2019-05-17T10:09:59.729Z,13.40
2019-05-17T10:16:04.253Z,13.30
2019-05-17T10:22:10.394Z,13.20
2019-05-17T10:28:14.430Z,13.20
2019-05-17T10:34:20.307Z,13.10
2019-05-17T10:40:24.765Z,13.10
2019-05-17T10:46:30.082Z,13.10
2019-05-17T10:52:34.433Z,13.30
2019-05-17T10:58:39.964Z,13.30
2019-05-17T11:04:44.384Z,13.40
2019-05-17T11:10:50.141Z,13.50
2019-05-17T11:16:54.924Z,13.30
2019-05-17T11:22:59.244Z,13.40
2019-05-17T11:29:03.552Z,13.50
2019-05-17T11:35:07.993Z,13.40
2019-05-17T11:41:20.968Z,13.90
2019-05-17T11:47:18.174Z,13.90
2019-05-17T11:53:22.518Z,14.00
2019-05-17T11:59:26.730Z,14.20
2019-05-17T12:05:31.084Z,14.40
2019-05-17T12:11:35.368Z,14.00
2019-05-17T12:17:39.698Z,14.10
2019-05-17T12:23:43.968Z,14.10
2019-05-17T12:29:48.192Z,14.00
2019-05-17T12:35:52.479Z,14.10
2019-05-17T12:41:56.782Z,14.20
2019-05-17T12:48:01.125Z,14.10
2019-05-17T12:54:05.576Z,14.50
2019-05-17T13:00:12.253Z,14.30
2019-05-17T13:06:16.597Z,14.30
2019-05-17T13:12:21.468Z,14.40
2019-05-17T13:18:25.669Z,14.60
2019-05-17T13:24:30.041Z,14.60
2019-05-17T13:30:34.243Z,14.60
2019-05-17T13:36:41.271Z,14.70
2019-05-17T13:42:45.545Z,14.70
2019-05-17T13:48:49.792Z,14.60
2019-05-17T13:54:53.987Z,14.60
2019-05-17T14:00:58.227Z,14.50
2019-05-17T14:07:02.434Z,14.70
2019-05-17T14:13:06.803Z,14.80
2019-05-17T14:19:11.202Z,14.90
2019-05-17T14:25:15.649Z,14.80
2019-05-17T14:31:19.937Z,14.90
2019-05-17T14:37:24.310Z,14.80
2019-05-17T14:43:31.549Z,15.00
2019-05-17T14:49:34.531Z,14.90
2019-05-17T14:55:38.751Z,15.10
2019-05-17T15:01:42.963Z,15.00
2019-05-17T15:07:47.153Z,15.00
2019-05-17T15:13:51.352Z,15.00
2019-05-17T15:19:55.696Z,14.90
2019-05-17T15:26:00.182Z,14.90
2019-05-17T15:32:04.469Z,14.90
2019-05-17T15:38:11.026Z,14.90
2019-05-17T15:44:14.712Z,15.00
2019-05-17T15:50:19.541Z,15.00
2019-05-17T15:56:23.761Z,15.00
2019-05-17T16:02:28.050Z,15.30
2019-05-17T16:08:32.268Z,15.00
2019-05-17T16:14:36.559Z,14.90
2019-05-17T16:20:40.828Z,14.90
2019-05-17T16:26:45.138Z,14.80
2019-05-17T16:32:49.361Z,14.80
2019-05-17T16:38:53.676Z,14.80
2019-05-17T16:44:57.930Z,14.60
2019-05-17T16:51:02.691Z,14.60
2019-05-17T16:57:07.022Z,14.60
2019-05-17T17:03:11.292Z,14.60
2019-05-17T17:09:15.574Z,14.60
2019-05-17T17:15:19.926Z,14.50
2019-05-17T17:21:24.203Z,14.40
2019-05-17T17:27:28.437Z,14.40
2019-05-17T17:33:32.759Z,14.30
2019-05-17T17:39:37.059Z,14.20
2019-05-17T17:45:41.287Z,14.20
2019-05-17T17:51:45.612Z,14.20
2019-05-17T17:57:50.108Z,14.20
2019-05-17T18:03:54.369Z,14.10
2019-05-17T18:09:58.728Z,14.00
2019-05-17T18:16:03.183Z,14.00
2019-05-17T18:22:07.437Z,14.00
2019-05-17T18:28:11.799Z,14.10
2019-05-17T18:34:16.128Z,14.00
2019-05-17T18:40:20.343Z,14.00
2019-05-17T18:46:24.617Z,13.90
2019-05-17T18:52:28.914Z,13.80
2019-05-17T18:58:33.379Z,13.80
2019-05-17T19:04:37.646Z,13.90
2019-05-17T19:10:42.514Z,13.80
2019-05-17T19:16:46.994Z,13.80
2019-05-17T19:22:51.354Z,13.70
2019-05-17T19:28:55.584Z,13.70
2019-05-17T19:34:59.830Z,13.70
2019-05-17T19:41:04.129Z,13.70
2019-05-17T19:47:08.359Z,13.60
2019-05-17T19:53:12.917Z,13.60
2019-05-17T19:59:17.455Z,13.60
2019-05-17T20:05:21.762Z,13.50
2019-05-17T20:11:34.148Z,13.50
2019-05-17T20:17:32.096Z,13.40
2019-05-17T20:23:36.359Z,13.40
2019-05-17T20:29:40.648Z,13.30
2019-05-17T20:35:44.960Z,13.20
2019-05-17T20:41:49.258Z,13.20
2019-05-17T20:47:53.581Z,13.10
2019-05-17T20:53:57.891Z,13.00
2019-05-17T21:00:02.195Z,13.00
2019-05-17T21:06:06.576Z,12.80
2019-05-17T21:12:10.903Z,12.70
2019-05-17T21:18:15.252Z,12.50
2019-05-17T21:24:19.575Z,12.30
2019-05-17T21:30:23.895Z,12.40
2019-05-17T21:36:28.257Z,12.30
2019-05-17T21:42:32.601Z,12.10
2019-05-17T21:48:36.883Z,12.10
2019-05-17T21:54:41.162Z,11.90
2019-05-17T22:01:24.930Z,12.00
2019-05-17T22:07:29.251Z,12.00
2019-05-17T22:13:33.556Z,11.80
2019-05-17T22:19:37.881Z,11.70
2019-05-17T22:25:42.111Z,11.80
2019-05-17T22:31:46.405Z,11.80
2019-05-17T22:37:50.674Z,11.80
2019-05-17T22:43:54.993Z,11.60
2019-05-17T22:49:59.234Z,11.60
2019-05-17T22:56:04.432Z,11.50
2019-05-17T23:02:08.724Z,11.50
2019-05-17T23:08:13.082Z,11.40
2019-05-17T23:14:17.288Z,11.30
2019-05-17T23:20:21.592Z,11.30
2019-05-17T23:26:25.824Z,11.20
2019-05-17T23:32:30.514Z,11.10
2019-05-17T23:38:34.788Z,11.10
2019-05-17T23:44:39.065Z,11.20
2019-05-17T23:50:43.293Z,11.30
2019-05-17T23:56:47.534Z,11.30
